WAPP

Pattimura , Ambon Airport

Ambon, Indonesia
TAF WAPP 261100Z 2612/2712 34009KT 5000 RA FEW017CB BKN018 BECMG 2618/2620 9999 NSW
Issued Valid From Valid To
Apr-26 @ 11:00 UTC
(2 hours ago)
Apr-26 @ 12:00 UTC
(an hour ago)
Apr-27 @ 12:00 UTC
(in 23 hours)
Apr-26 @ 12:00 to Apr-26 @ 18:00
TAF WAPP 261100Z 2612/2712 34009KT 5000 RA FEW017CB BKN018
Wind Visibility Clouds Conditions
340° at 9 knots 5,005 meters
  • Few at 1,700' AGL
  • Broken at 1,800' AGL
  • Rain
Becoming Apr-26 @ 18:00 to Apr-27 @ 12:00
BECMG 2618/2620 9999 NSW
Wind Visibility Clouds Conditions
340° at 9 knots 10,000+ meters
  • Few at 1,700' AGL
  • Broken at 1,800' AGL
TAF WAPP 261100Z 2612/2712 34009KT 5000 RA FEW017CB BKN018 BECMG 2618/2620 9999 NSW
Issued Apr-26 @ 11:00 UTC
(2 hours ago)
Valid From Apr-26 @ 12:00 UTC
(an hour ago)
Valid To Apr-27 @ 12:00 UTC
(in 23 hours)
Apr-26 @ 12:00 - Apr-26 @ 18:00
Wind Visibility
340° at 9 knots 5,005 meters
Clouds
  • Few at 1,700' AGL
  • Broken at 1,800' AGL
Conditions
  • Rain
Becoming Apr-26 @ 18:00 - Apr-27 @ 12:00
Wind Visibility
340° at 9 knots 10,000+ meters
Clouds
  • Few at 1,700' AGL
  • Broken at 1,800' AGL
Conditions